Time;durP1;ratioP1;P1;durP2;ratioP2;P2;SDS_P1;SDS_P2;PMS_P1;PMS_P2;Temp;Humidity;BMP_temperature;BMP_pressure;BME280_temperature;BME280_humidity;BME280_pressure;Samples;Min_cycle;Max_cycle;Signal;HPM_P1;HPM_P2
2023/08/09 00:00:17;;;;;;;14.07;6.70;;;;;;;13.86;100.00;101327.22;6100462;19;20033;-71
2023/08/09 00:02:23;;;;;;;14.23;6.38;;;;;;;13.88;100.00;101320.09;6099005;19;20014;-74
2023/08/09 00:04:25;;;;;;;14.93;6.70;;;;;;;13.82;100.00;101331.81;6103920;19;20491;-75
2023/08/09 00:06:30;;;;;;;12.48;6.07;;;;;;;13.79;100.00;101333.72;6097325;19;20006;-73
2023/08/09 00:08:32;;;;;;;13.88;7.35;;;;;;;13.75;100.00;101329.53;6099905;19;20021;-73
2023/08/09 00:10:41;;;;;;;14.32;6.97;;;;;;;13.75;100.00;101327.72;6104116;19;20478;-73
2023/08/09 00:12:43;;;;;;;15.15;7.05;;;;;;;13.73;100.00;101336.66;6102217;19;20101;-72
2023/08/09 00:14:48;;;;;;;15.50;7.20;;;;;;;13.66;100.00;101329.94;6103542;19;20434;-74
2023/08/09 00:16:53;;;;;;;15.40;7.05;;;;;;;13.65;100.00;101336.16;6103831;19;20456;-74
2023/08/09 00:18:58;;;;;;;19.30;7.68;;;;;;;13.59;100.00;101342.56;6103433;19;20598;-73
2023/08/09 00:21:04;;;;;;;21.73;8.98;;;;;;;13.57;100.00;101342.63;6104688;19;20025;-73
2023/08/09 00:23:08;;;;;;;19.02;8.70;;;;;;;13.57;100.00;101345.28;6102671;19;20090;-72
2023/08/09 00:25:14;;;;;;;15.90;7.43;;;;;;;13.59;100.00;101353.13;6105717;19;20098;-69
2023/08/09 00:27:21;;;;;;;16.40;8.85;;;;;;;13.57;100.00;101354.97;6098606;19;20010;-70
2023/08/09 00:29:26;;;;;;;20.45;9.48;;;;;;;13.51;100.00;101349.97;6102476;19;20011;-70
2023/08/09 00:31:40;;;;;;;20.20;9.43;;;;;;;13.51;100.00;101364.03;6104068;19;20021;-72
2023/08/09 00:33:48;;;;;;;17.05;8.40;;;;;;;13.47;100.00;101354.53;6102716;19;20479;-70
2023/08/09 00:35:53;;;;;;;18.25;9.05;;;;;;;13.48;100.00;101350.97;6083101;19;20002;-73
2023/08/09 00:37:58;;;;;;;19.27;8.77;;;;;;;13.46;100.00;101358.09;6104026;19;20379;-73
2023/08/09 00:40:05;;;;;;;21.13;10.77;;;;;;;13.41;100.00;101356.59;6101666;19;20108;-73
2023/08/09 00:42:10;;;;;;;21.88;9.85;;;;;;;13.31;100.00;101358.75;6098681;19;20006;-73
2023/08/09 00:44:17;;;;;;;22.02;9.18;;;;;;;13.31;100.00;101364.03;6102227;19;20011;-74
2023/08/09 00:46:23;;;;;;;23.65;10.30;;;;;;;13.26;100.00;101364.25;6100256;19;20031;-74
2023/08/09 00:48:26;;;;;;;20.50;9.60;;;;;;;13.27;100.00;101362.44;6103306;19;20041;-74
2023/08/09 00:50:30;;;;;;;;;;;;;;;13.27;100.00;101365.97;6098628;19;21043;-71
2023/08/09 00:52:36;;;;;;;16.20;8.73;;;;;;;13.25;100.00;101364.28;6099136;19;20371;-74
2023/08/09 00:54:42;;;;;;;23.17;10.70;;;;;;;13.27;100.00;101360.69;6102139;19;22074;-75
2023/08/09 00:56:47;;;;;;;18.92;8.57;;;;;;;13.27;100.00;101365.09;6103575;19;20010;-74
2023/08/09 00:58:52;;;;;;;21.20;9.20;;;;;;;13.27;100.00;101359.81;6096057;19;20598;-74
2023/08/09 01:01:02;;;;;;;24.33;11.70;;;;;;;13.30;100.00;101359.72;6099359;19;20078;-75
2023/08/09 01:03:07;;;;;;;22.65;10.20;;;;;;;13.31;100.00;101361.41;6101217;19;20416;-72
2023/08/09 01:05:12;;;;;;;21.60;11.00;;;;;;;13.27;100.00;101362.44;6101300;19;20015;-73
2023/08/09 01:07:22;;;;;;;21.38;10.20;;;;;;;13.27;100.00;101360.69;6099697;19;20573;-72
2023/08/09 01:09:39;;;;;;;22.45;11.40;;;;;;;13.26;100.00;101363.34;6096851;19;20108;-74
2023/08/09 01:11:51;;;;;;;21.55;10.93;;;;;;;13.22;100.00;101361.75;6099687;19;20014;-74
2023/08/09 01:14:04;;;;;;;22.50;11.27;;;;;;;13.24;100.00;101366.03;6100061;19;20431;-74
2023/08/09 01:16:13;;;;;;;22.85;10.77;;;;;;;13.25;100.00;101372.22;6095714;19;20031;-73
2023/08/09 01:18:20;;;;;;;28.63;13.00;;;;;;;13.22;100.00;101369.69;6104888;19;20010;-73
2023/08/09 01:20:26;;;;;;;26.27;12.30;;;;;;;13.22;100.00;101367.91;6095059;19;20043;-74
2023/08/09 01:22:31;;;;;;;23.85;11.32;;;;;;;13.25;100.00;101364.28;6098175;19;20267;-72
2023/08/09 01:24:39;;;;;;;25.25;13.38;;;;;;;13.21;100.00;101378.53;6101131;19;20033;-72
2023/08/09 01:26:45;;;;;;;27.40;12.43;;;;;;;13.20;100.00;101375.03;6103008;19;20010;-70
2023/08/09 01:28:50;;;;;;;26.38;10.98;;;;;;;13.18;100.00;101372.44;6101454;19;20027;-70
2023/08/09 01:30:55;;;;;;;28.45;13.57;;;;;;;13.20;100.00;101368.91;6100249;19;20039;-70
2023/08/09 01:33:00;;;;;;;28.00;13.30;;;;;;;13.22;100.00;101369.69;6088326;19;20010;-71
2023/08/09 01:35:06;;;;;;;28.73;13.10;;;;;;;13.21;100.00;101366.19;6097786;19;20007;-74
2023/08/09 01:37:18;;;;;;;27.80;12.65;;;;;;;13.23;100.00;101366.13;6100439;19;20007;-71
2023/08/09 01:39:29;;;;;;;25.23;11.77;;;;;;;13.18;100.00;101371.59;6100680;19;20049;-72
2023/08/09 01:41:38;;;;;;;30.65;13.85;;;;;;;13.17;100.00;101376.03;6098211;19;20031;-70
2023/08/09 01:43:45;;;;;;;30.55;13.65;;;;;;;13.23;100.00;101376.69;6101303;19;20513;-72
2023/08/09 01:45:50;;;;;;;29.73;13.43;;;;;;;13.23;100.00;101380.19;6102144;19;20573;-74
2023/08/09 01:47:55;;;;;;;28.30;12.65;;;;;;;13.24;100.00;101381.03;6101161;19;20015;-71
2023/08/09 01:50:00;;;;;;;32.50;14.10;;;;;;;13.18;100.00;101372.44;6093884;19;20014;-73
2023/08/09 01:52:06;;;;;;;27.13;13.05;;;;;;;13.18;100.00;101375.09;6096944;19;20130;-71
2023/08/09 01:54:12;;;;;;;27.63;13.77;;;;;;;13.15;100.00;101380.50;6094329;19;20038;-69
2023/08/09 01:56:16;;;;;;;23.60;12.10;;;;;;;13.14;100.00;101383.22;6099753;19;20024;-70
2023/08/09 01:58:24;;;;;;;26.30;12.38;;;;;;;13.15;100.00;101380.50;6095566;19;20020;-72
2023/08/09 02:00:29;;;;;;;30.02;13.13;;;;;;;13.17;100.00;101383.94;6099127;19;20383;-72
2023/08/09 02:02:34;;;;;;;27.05;12.88;;;;;;;13.14;100.00;101376.16;6099598;19;20026;-71
2023/08/09 02:04:39;;;;;;;27.05;12.50;;;;;;;13.13;100.00;101384.97;6098021;19;20585;-71
2023/08/09 02:06:45;;;;;;;28.48;13.40;;;;;;;13.12;100.00;101380.63;6096873;19;20035;-69
2023/08/09 02:08:50;;;;;;;26.58;12.77;;;;;;;13.14;100.00;101385.88;6097942;19;20712;-69
2023/08/09 02:10:56;;;;;;;28.27;11.63;;;;;;;13.14;100.00;101396.41;6098310;19;20069;-70
2023/08/09 02:12:58;;;;;;;28.52;12.52;;;;;;;13.11;100.00;101404.44;6099922;19;20034;-70
2023/08/09 02:15:08;;;;;;;;;;;;;;;13.09;100.00;101407.16;6101514;19;20014;-70
2023/08/09 02:17:13;;;;;;;28.08;12.52;;;;;;;13.08;100.00;101407.22;6100776;19;19932;-71
2023/08/09 02:19:19;;;;;;;26.23;12.57;;;;;;;13.11;100.00;101415.00;6099746;19;20127;-70
2023/08/09 02:21:25;;;;;;;28.27;11.50;;;;;;;13.13;100.00;101407.88;6099082;19;20011;-69
2023/08/09 02:23:31;;;;;;;25.30;10.95;;;;;;;13.11;100.00;101410.59;6095554;19;20038;-70
2023/08/09 02:25:36;;;;;;;27.05;11.98;;;;;;;13.13;100.00;101416.66;6102381;19;20015;-71
2023/08/09 02:27:42;;;;;;;24.95;10.90;;;;;;;13.10;100.00;101416.78;6098872;19;20475;-70
2023/08/09 02:29:47;;;;;;;27.17;10.80;;;;;;;13.09;100.00;101412.44;6100155;19;20448;-70
2023/08/09 02:31:55;;;;;;;23.33;10.68;;;;;;;13.12;100.00;101419.38;6100293;19;19998;-73
2023/08/09 02:34:00;;;;;;;28.38;12.07;;;;;;;13.14;100.00;101425.44;6098497;19;20070;-70
2023/08/09 02:36:07;;;;;;;29.48;12.23;;;;;;;13.13;100.00;101421.06;6098089;19;20015;-70
2023/08/09 02:38:12;;;;;;;23.02;10.57;;;;;;;13.11;100.00;101420.28;6102762;19;20086;-70
2023/08/09 02:40:17;;;;;;;21.67;10.48;;;;;;;13.09;100.00;101420.34;6095530;19;20007;-70
2023/08/09 02:42:22;;;;;;;27.20;11.27;;;;;;;13.05;100.00;101417.91;6095660;19;20480;-70
2023/08/09 02:44:27;;;;;;;22.27;11.10;;;;;;;13.06;100.00;101423.13;6098591;19;20466;-71
2023/08/09 02:46:32;;;;;;;26.42;11.43;;;;;;;13.07;100.00;101430.09;6105118;19;20530;-70
2023/08/09 02:48:40;;;;;;;21.02;10.32;;;;;;;13.05;100.00;101429.31;6109876;19;20019;-70
2023/08/09 02:50:45;;;;;;;23.63;9.82;;;;;;;13.04;100.00;101422.31;6111528;19;20014;-70
2023/08/09 02:53:01;;;;;;;24.38;10.00;;;;;;;13.07;100.00;101424.84;6108815;19;20020;-70
2023/08/09 02:55:09;;;;;;;23.25;10.80;;;;;;;13.07;100.00;101421.34;6110359;19;20055;-69
2023/08/09 02:57:14;;;;;;;22.15;9.90;;;;;;;13.09;100.00;101427.41;6108967;19;20109;-70
2023/08/09 02:59:19;;;;;;;21.92;11.15;;;;;;;13.08;100.00;101431.81;6103249;19;20065;-73
2023/08/09 03:01:24;;;;;;;20.40;9.60;;;;;;;13.11;100.00;101429.06;6109405;19;20007;-74
2023/08/09 03:03:30;;;;;;;22.15;9.73;;;;;;;13.14;100.00;101428.94;6109314;19;20404;-73
2023/08/09 03:05:35;;;;;;;24.15;9.63;;;;;;;13.09;100.00;101430.91;6111635;19;20054;-73
2023/08/09 03:07:41;;;;;;;21.13;8.73;;;;;;;13.09;100.00;101433.53;6107945;19;20035;-73
2023/08/09 03:09:46;;;;;;;20.42;9.48;;;;;;;13.11;100.00;101436.09;6110224;19;20494;-73
2023/08/09 03:11:52;;;;;;;19.30;8.90;;;;;;;13.08;100.00;101444.16;6106709;19;20027;-73
2023/08/09 03:14:00;;;;;;;19.77;8.52;;;;;;;13.07;100.00;101445.94;6111090;19;20364;-73
2023/08/09 03:16:05;;;;;;;16.25;7.57;;;;;;;13.03;100.00;101439.06;6110008;19;20300;-72
2023/08/09 03:18:11;;;;;;;22.27;8.98;;;;;;;13.05;100.00;101445.13;6107211;19;20012;-73
2023/08/09 03:20:17;;;;;;;19.30;9.30;;;;;;;13.06;100.00;101446.00;6109860;19;20006;-73
2023/08/09 03:22:25;;;;;;;20.73;9.75;;;;;;;13.04;100.00;101440.78;6105257;19;20006;-72
2023/08/09 03:24:30;;;;;;;19.83;9.00;;;;;;;13.05;100.00;101444.28;6109613;19;20467;-72
2023/08/09 03:26:35;;;;;;;17.98;8.38;;;;;;;13.06;100.00;101446.88;6110697;19;20023;-73
2023/08/09 03:28:43;;;;;;;20.00;9.60;;;;;;;13.07;100.00;101447.72;6110418;19;20752;-74
2023/08/09 03:30:51;;;;;;;17.35;7.50;;;;;;;13.01;100.00;101446.19;6108345;19;20015;-76
2023/08/09 03:32:55;;;;;;;17.40;7.38;;;;;;;13.01;100.00;101453.25;6105297;19;20081;-73
2023/08/09 03:35:00;;;;;;;18.85;8.75;;;;;;;13.01;100.00;101450.63;6110234;19;20014;-70
2023/08/09 03:37:05;;;;;;;19.38;7.63;;;;;;;12.97;100.00;101449.88;6111014;19;20006;-70
2023/08/09 03:39:13;;;;;;;16.42;8.25;;;;;;;12.95;100.00;101444.69;6108797;19;20011;-70
2023/08/09 03:41:18;;;;;;;20.23;8.43;;;;;;;12.97;100.00;101447.22;6110087;19;20487;-69
2023/08/09 03:43:23;;;;;;;18.77;8.35;;;;;;;12.93;100.00;101451.78;6109871;19;20050;-70
2023/08/09 03:45:28;;;;;;;16.15;7.70;;;;;;;12.91;100.00;101450.13;6110418;19;20648;-70
2023/08/09 03:47:33;;;;;;;17.15;7.65;;;;;;;12.93;100.00;101456.22;6110129;19;20015;-72
2023/08/09 03:49:38;;;;;;;20.73;8.93;;;;;;;12.91;100.00;101461.53;6108558;19;20078;-70
2023/08/09 03:51:44;;;;;;;18.02;8.38;;;;;;;12.92;100.00;101462.38;6105912;19;20010;-70
2023/08/09 03:53:49;;;;;;;19.60;8.75;;;;;;;12.92;100.00;101472.94;6104862;19;20039;-70
2023/08/09 03:55:57;;;;;;;18.25;8.45;;;;;;;12.85;100.00;101474.97;6108772;19;20003;-70
2023/08/09 03:58:05;;;;;;;18.83;8.32;;;;;;;12.87;100.00;101467.00;6103568;19;20472;-70
2023/08/09 04:00:17;;;;;;;19.55;8.77;;;;;;;12.92;100.00;101467.66;6105168;19;20372;-70
2023/08/09 04:02:23;;;;;;;15.65;8.20;;;;;;;12.92;100.00;101470.31;6099538;19;20028;-69
2023/08/09 04:04:28;;;;;;;19.42;9.18;;;;;;;12.95;100.00;101471.06;6100347;19;20030;-70
2023/08/09 04:06:33;;;;;;;19.80;8.95;;;;;;;12.95;100.00;101473.69;6102561;19;20829;-70
2023/08/09 04:08:41;;;;;;;16.08;7.55;;;;;;;12.96;100.00;101475.41;6100358;19;20397;-70
2023/08/09 04:10:46;;;;;;;16.63;8.30;;;;;;;13.02;100.00;101474.28;6102186;19;20027;-71
2023/08/09 04:12:54;;;;;;;19.77;9.27;;;;;;;12.99;100.00;101481.47;6101507;19;20010;-70
2023/08/09 04:14:59;;;;;;;18.77;8.70;;;;;;;12.99;100.00;101486.75;6104039;19;20010;-69
2023/08/09 04:17:04;;;;;;;17.13;8.07;;;;;;;12.99;100.00;101481.47;6103407;19;20007;-70
2023/08/09 04:19:09;;;;;;;18.95;8.35;;;;;;;13.03;100.00;101493.63;6102426;19;20007;-70
2023/08/09 04:21:14;;;;;;;17.55;8.30;;;;;;;12.98;100.00;101493.81;6101264;19;20003;-70
2023/08/09 04:23:21;;;;;;;15.48;8.02;;;;;;;13.01;100.00;101495.47;6099663;19;20014;-70
2023/08/09 04:25:26;;;;;;;18.20;8.00;;;;;;;13.01;100.00;101504.25;6100651;19;20042;-70
2023/08/09 04:27:32;;;;;;;16.58;8.68;;;;;;;13.06;100.00;101497.00;6100672;19;20815;-70
2023/08/09 04:29:39;;;;;;;20.02;8.88;;;;;;;13.08;100.00;101499.56;6098806;19;20436;-70
2023/08/09 04:31:44;;;;;;;18.38;9.25;;;;;;;13.09;100.00;101504.78;6099354;19;20078;-70
2023/08/09 04:33:51;;;;;;;16.17;8.07;;;;;;;13.15;100.00;101508.97;6102854;19;20005;-70
2023/08/09 04:35:56;;;;;;;17.35;8.63;;;;;;;13.16;100.00;101503.63;6101592;19;20074;-70
2023/08/09 04:38:03;;;;;;;16.63;7.78;;;;;;;13.18;100.00;101509.69;6104004;19;20447;-70
2023/08/09 04:40:11;;;;;;;19.50;8.02;;;;;;;13.23;100.00;101506.88;6101330;19;20007;-70
2023/08/09 04:42:16;;;;;;;20.42;8.43;;;;;;;13.27;100.00;101502.34;6104526;19;20381;-70
2023/08/09 04:44:21;;;;;;;15.98;8.20;;;;;;;13.30;100.00;101503.09;6101068;19;20047;-72
2023/08/09 04:46:29;;;;;;;15.45;7.18;;;;;;;13.35;100.00;101510.81;6099119;19;20010;-72
2023/08/09 04:48:34;;;;;;;17.58;8.32;;;;;;;13.39;100.00;101518.53;6101052;19;20082;-74
2023/08/09 04:50:41;;;;;;;15.32;7.25;;;;;;;13.46;100.00;101515.66;6098269;19;20878;-73
2023/08/09 04:52:49;;;;;;;14.55;6.43;;;;;;;13.53;100.00;101517.97;6098770;19;20153;-73
2023/08/09 04:54:54;;;;;;;14.00;6.90;;;;;;;13.59;100.00;101517.72;6096291;19;20075;-73
2023/08/09 04:56:59;;;;;;;12.60;6.88;;;;;;;13.66;100.00;101514.81;6097143;19;20050;-73
2023/08/09 04:59:05;;;;;;;13.77;7.50;;;;;;;13.74;100.00;101512.69;6101284;19;20015;-73
2023/08/09 05:01:10;;;;;;;18.38;8.63;;;;;;;13.83;100.00;101512.31;6099427;19;20034;-73
2023/08/09 05:03:17;;;;;;;16.13;8.05;;;;;;;13.89;100.00;101513.81;6101715;19;20015;-74
2023/08/09 05:05:23;;;;;;;15.02;7.32;;;;;;;13.94;100.00;101510.06;6101538;19;20083;-73
2023/08/09 05:07:28;;;;;;;13.68;7.55;;;;;;;14.01;100.00;101516.78;6100787;19;20014;-74
2023/08/09 05:09:33;;;;;;;14.15;7.82;;;;;;;14.08;100.00;101516.50;6097042;19;20027;-73
2023/08/09 05:11:38;;;;;;;15.18;8.65;;;;;;;14.12;100.00;101524.25;6095405;19;20466;-73
2023/08/09 05:13:43;;;;;;;15.02;7.95;;;;;;;14.14;100.00;101522.41;6100065;19;20011;-73
2023/08/09 05:15:50;;;;;;;13.75;7.07;;;;;;;14.21;100.00;101526.47;6100375;19;20361;-74
2023/08/09 05:17:55;;;;;;;16.13;8.13;;;;;;;14.27;100.00;101526.22;6099140;19;20006;-72
2023/08/09 05:20:02;;;;;;;15.68;8.18;;;;;;;14.32;100.00;101525.97;6099862;19;20011;-71
2023/08/09 05:22:07;;;;;;;16.70;8.27;;;;;;;14.39;100.00;101526.56;6102285;19;20023;-71
2023/08/09 05:24:13;;;;;;;15.10;7.75;;;;;;;14.38;100.00;101523.06;6101339;19;20010;-70
2023/08/09 05:26:19;;;;;;;16.55;8.20;;;;;;;14.35;100.00;101515.28;6098647;19;20344;-72
2023/08/09 05:28:24;;;;;;;17.58;8.30;;;;;;;14.38;100.00;101514.28;6090728;19;20002;-72
2023/08/09 05:30:29;;;;;;;15.30;8.50;;;;;;;14.39;100.00;101516.00;6097903;19;20014;-72
2023/08/09 05:32:34;;;;;;;15.23;7.20;;;;;;;14.40;100.00;101523.88;6099129;19;20635;-71
2023/08/09 05:34:39;;;;;;;13.68;6.32;;;;;;;14.41;100.00;101533.50;6100298;19;20053;-70
2023/08/09 05:36:46;;;;;;;14.15;8.07;;;;;;;14.43;100.00;101534.31;6098331;19;20070;-74
2023/08/09 05:38:54;;;;;;;16.58;7.05;;;;;;;14.45;100.00;101543.00;6099949;19;20592;-75
2023/08/09 05:40:59;;;;;;;17.15;7.78;;;;;;;14.43;100.00;101544.88;6100317;19;20015;-74
2023/08/09 05:43:04;;;;;;;17.95;8.18;;;;;;;14.43;100.00;101544.88;6100319;19;20006;-75
2023/08/09 05:45:08;;;;;;;20.35;9.45;;;;;;;14.40;100.00;101542.38;6094944;19;20007;-74
2023/08/09 05:47:13;;;;;;;15.98;7.45;;;;;;;14.44;100.00;101543.09;6098626;19;20009;-75
2023/08/09 05:49:18;;;;;;;15.88;7.78;;;;;;;14.47;100.00;101549.09;6096022;19;20078;-73
2023/08/09 05:51:24;;;;;;;17.67;8.52;;;;;;;14.50;100.00;101550.72;6100351;19;20006;-75
2023/08/09 05:53:32;;;;;;;15.20;6.90;;;;;;;14.55;100.00;101554.06;6098072;19;20017;-76
2023/08/09 05:55:37;;;;;;;13.32;7.03;;;;;;;14.61;100.00;101556.44;6081239;19;20022;-74
2023/08/09 05:57:42;;;;;;;17.25;9.18;;;;;;;14.62;100.00;101565.22;6097887;19;20359;-74
2023/08/09 05:59:47;;;;;;;13.43;7.22;;;;;;;14.67;100.00;101563.25;6076696;19;20007;-74
2023/08/09 06:01:52;;;;;;;16.48;8.00;;;;;;;14.81;100.00;101562.59;6096162;19;20050;-73
2023/08/09 06:03:57;;;;;;;15.20;8.55;;;;;;;15.52;100.00;101570.66;6097677;19;20011;-74
2023/08/09 06:06:03;;;;;;;19.15;9.25;;;;;;;16.01;100.00;101570.84;6098600;19;20007;-74
2023/08/09 06:08:08;;;;;;;18.33;9.68;;;;;;;16.36;100.00;101576.09;6097998;19;20388;-70
2023/08/09 06:10:16;;;;;;;23.10;10.88;;;;;;;16.71;100.00;101576.00;6101365;19;20006;-70
2023/08/09 06:12:23;;;;;;;20.90;11.00;;;;;;;17.00;100.00;101572.63;6091141;19;20007;-71
2023/08/09 06:14:33;;;;;;;19.88;10.05;;;;;;;17.14;100.00;101565.69;6098685;19;20035;-70
2023/08/09 06:16:39;;;;;;;19.23;9.63;;;;;;;17.38;100.00;101556.34;6099429;19;20014;-71
2023/08/09 06:18:44;;;;;;;20.23;9.98;;;;;;;17.59;100.00;101554.22;6096198;19;20395;-70
2023/08/09 06:20:49;;;;;;;16.85;8.38;;;;;;;17.53;100.00;101566.03;6096555;19;20006;-72
2023/08/09 06:22:51;;;;;;;16.10;9.15;;;;;;;17.86;100.00;101567.72;6099122;19;20039;-70
2023/08/09 06:24:58;;;;;;;16.50;8.45;;;;;;;18.08;100.00;101574.41;6095892;19;20564;-72
2023/08/09 06:27:06;;;;;;;19.92;9.73;;;;;;;18.47;100.00;101572.91;6100232;19;20010;-72
2023/08/09 06:29:12;;;;;;;15.80;7.68;;;;;;;18.57;99.85;101574.06;6099348;19;20006;-72
2023/08/09 06:31:17;;;;;;;17.00;7.70;;;;;;;18.36;99.89;101582.41;6091365;19;20039;-71
2023/08/09 06:33:23;;;;;;;12.30;6.22;;;;;;;18.66;97.89;101576.13;6098043;19;20013;-71
2023/08/09 06:35:32;;;;;;;15.88;9.07;;;;;;;18.89;96.42;101576.53;6094981;19;20017;-70
2023/08/09 06:37:37;;;;;;;13.52;7.05;;;;;;;18.71;94.87;101574.03;6099270;19;20035;-70
2023/08/09 06:39:44;;;;;;;13.45;6.85;;;;;;;18.53;96.31;101569.88;6101877;19;20010;-70
2023/08/09 06:41:49;;;;;;;13.70;6.53;;;;;;;18.34;97.86;101579.00;6097835;19;20748;-70
2023/08/09 06:43:59;;;;;;;10.90;5.70;;;;;;;18.52;97.44;101581.47;6097455;19;20538;-70
2023/08/09 06:46:05;;;;;;;13.50;5.60;;;;;;;18.72;92.97;101589.06;6099903;19;20006;-71
2023/08/09 06:48:10;;;;;;;11.18;5.53;;;;;;;19.15;94.01;101585.50;6101368;19;20014;-70
2023/08/09 06:50:13;;;;;;;13.23;6.68;;;;;;;19.15;90.29;101589.03;6099968;19;20038;-70
2023/08/09 06:52:17;;;;;;;12.65;5.78;;;;;;;19.05;91.82;101591.41;6097136;19;20015;-71
2023/08/09 06:54:23;;;;;;;11.52;5.07;;;;;;;19.04;92.14;101587.06;6096095;19;20011;-71
2023/08/09 06:56:25;;;;;;;10.55;5.25;;;;;;;19.60;91.83;101594.97;6091819;19;20024;-72
2023/08/09 06:58:32;;;;;;;9.40;4.97;;;;;;;19.59;89.48;101590.59;6095279;19;20006;-72
2023/08/09 07:00:40;;;;;;;9.38;4.65;;;;;;;19.61;89.12;101593.13;6094658;19;20017;-70
2023/08/09 07:02:46;;;;;;;9.95;4.40;;;;;;;19.93;89.30;101596.34;6094330;19;20011;-70
2023/08/09 07:04:57;;;;;;;9.73;4.63;;;;;;;19.76;87.48;101597.50;6098652;19;20034;-70
2023/08/09 07:07:02;;;;;;;7.78;4.55;;;;;;;20.11;87.62;101597.75;6095074;19;20015;-70
2023/08/09 07:09:11;;;;;;;10.52;5.38;;;;;;;19.91;86.02;101595.59;6099671;19;20021;-70
2023/08/09 07:11:16;;;;;;;8.70;4.20;;;;;;;20.35;87.73;101591.66;6097524;19;20017;-73
2023/08/09 07:13:21;;;;;;;10.07;4.57;;;;;;;20.04;84.80;101590.28;6092424;19;20037;-72
2023/08/09 07:15:23;;;;;;;10.48;4.53;;;;;;;20.19;85.29;101589.22;6096707;19;20003;-73
2023/08/09 07:17:34;;;;;;;8.38;4.28;;;;;;;20.22;84.51;101594.38;6097772;19;20042;-74
2023/08/09 07:19:38;;;;;;;8.60;3.97;;;;;;;20.33;84.69;101590.94;6099372;19;20013;-73
2023/08/09 07:21:47;;;;;;;7.85;3.72;;;;;;;20.53;81.16;101590.38;6096563;19;20006;-73
2023/08/09 07:23:55;;;;;;;7.50;3.55;;;;;;;20.12;83.41;101594.13;6095272;19;20017;-73
2023/08/09 07:26:02;;;;;;;7.15;3.60;;;;;;;19.58;84.82;101599.53;6097541;19;20066;-74
2023/08/09 07:28:08;;;;;;;8.80;4.70;;;;;;;19.23;86.20;101600.03;6092207;19;19998;-74
2023/08/09 07:30:16;;;;;;;6.43;3.35;;;;;;;19.39;85.53;101605.22;6093250;19;20782;-73
2023/08/09 07:32:21;;;;;;;7.13;3.83;;;;;;;19.84;84.54;101596.97;6094550;19;20255;-73
2023/08/09 07:34:29;;;;;;;7.13;3.63;;;;;;;20.40;81.98;101597.53;6101182;19;20003;-73
2023/08/09 07:36:51;;;;;;;5.80;3.40;;;;;;;21.03;82.03;101601.97;6102488;19;20006;-73
2023/08/09 07:38:57;;;;;;;5.75;3.00;;;;;;;20.45;79.56;101594.56;6078315;19;20010;-70
2023/08/09 07:41:05;;;;;;;6.50;2.80;;;;;;;20.69;79.75;101598.19;6098945;19;20011;-70
2023/08/09 07:43:10;;;;;;;7.88;2.85;;;;;;;20.85;77.34;101597.94;6100038;19;20010;-70
2023/08/09 07:45:16;;;;;;;6.32;2.97;;;;;;;20.38;78.74;101602.16;6101279;19;20050;-69
2023/08/09 07:47:20;;;;;;;5.53;2.72;;;;;;;20.36;79.21;101607.59;6102978;19;20610;-73
2023/08/09 07:49:29;;;;;;;6.15;3.50;;;;;;;19.70;78.91;101616.56;6096317;19;20388;-73
2023/08/09 07:51:31;;;;;;;6.57;3.58;;;;;;;19.55;80.98;101612.22;6101869;19;20011;-74
2023/08/09 07:53:36;;;;;;;7.30;3.63;;;;;;;19.58;81.87;101615.53;6099495;19;20014;-74
2023/08/09 07:55:43;;;;;;;6.50;3.17;;;;;;;19.32;81.65;101627.91;6102724;19;20069;-73
2023/08/09 07:57:47;;;;;;;7.07;3.05;;;;;;;18.83;83.73;101623.06;6103953;19;20400;-68
2023/08/09 07:59:53;;;;;;;4.78;2.88;;;;;;;18.52;84.83;101634.72;6106388;19;20035;-70
2023/08/09 08:02:07;;;;;;;6.00;3.53;;;;;;;18.61;85.62;101645.63;6108909;19;20014;-69
2023/08/09 08:04:12;;;;;;;5.75;3.20;;;;;;;18.90;85.00;101640.34;6106110;19;20093;-69
2023/08/09 08:06:20;;;;;;;5.85;3.03;;;;;;;19.53;81.82;101639.81;6103566;19;20003;-69
2023/08/09 08:08:25;;;;;;;6.07;3.03;;;;;;;19.97;80.58;101637.00;6099836;19;20007;-68
2023/08/09 08:10:30;;;;;;;7.20;3.60;;;;;;;20.54;78.38;101636.69;6106382;19;20701;-69
2023/08/09 08:12:32;;;;;;;7.75;3.50;;;;;;;21.12;76.97;101637.03;6104610;19;20011;-69
2023/08/09 08:14:37;;;;;;;6.07;3.05;;;;;;;21.20;75.48;101640.84;6103208;19;20610;-69
2023/08/09 08:16:43;;;;;;;7.55;3.65;;;;;;;20.70;76.10;101648.00;6104723;19;20085;-73
2023/08/09 08:18:48;;;;;;;6.93;3.28;;;;;;;20.53;78.23;101646.44;6103178;19;20007;-73
2023/08/09 08:20:53;;;;;;;8.18;3.65;;;;;;;20.07;78.24;101654.97;6098850;19;20604;-73
2023/08/09 08:23:01;;;;;;;7.10;3.42;;;;;;;19.68;79.89;101658.47;6098859;19;20007;-69
2023/08/09 08:25:07;;;;;;;5.45;3.42;;;;;;;19.35;79.84;101653.50;6098273;19;20081;-69
2023/08/09 08:27:12;;;;;;;7.68;3.53;;;;;;;19.17;81.76;101652.84;6098822;19;20003;-68
2023/08/09 08:29:17;;;;;;;7.65;3.50;;;;;;;19.81;81.07;101650.53;6101628;19;20014;-68
2023/08/09 08:31:22;;;;;;;7.63;4.20;;;;;;;20.60;76.85;101657.59;6103425;19;20359;-68
2023/08/09 08:33:29;;;;;;;7.80;3.88;;;;;;;20.65;76.96;101665.31;6093117;19;20611;-69
2023/08/09 08:35:36;;;;;;;7.57;4.22;;;;;;;19.92;78.90;101678.19;6098342;19;20014;-69
2023/08/09 08:37:40;;;;;;;6.85;3.20;;;;;;;19.80;78.78;101668.34;6101735;19;20014;-68
2023/08/09 08:39:47;;;;;;;5.60;3.58;;;;;;;19.45;78.09;101667.94;6097183;19;20010;-68
2023/08/09 08:41:56;;;;;;;7.30;4.22;;;;;;;18.93;79.32;101673.91;6101192;19;20015;-69
2023/08/09 08:44:01;;;;;;;7.53;3.70;;;;;;;19.50;79.70;101671.16;6097648;19;20046;-68
2023/08/09 08:46:07;;;;;;;7.75;3.83;;;;;;;20.45;76.34;101667.50;6099831;19;20055;-74
2023/08/09 08:48:13;;;;;;;5.72;3.75;;;;;;;20.99;73.47;101678.00;6098041;19;20022;-72
2023/08/09 08:50:19;;;;;;;8.23;4.40;;;;;;;21.17;72.46;101677.63;6095784;19;20080;-68
2023/08/09 08:52:29;;;;;;;8.32;3.95;;;;;;;21.06;71.46;101681.06;6099865;19;20129;-68
2023/08/09 08:54:34;;;;;;;8.77;3.90;;;;;;;21.96;70.21;101683.44;6102642;19;20090;-69
2023/08/09 08:56:42;;;;;;;8.23;3.40;;;;;;;21.72;70.39;101678.97;6100716;19;20482;-69
2023/08/09 08:58:47;;;;;;;6.25;3.83;;;;;;;20.85;72.12;101688.78;6100226;19;20028;-69
2023/08/09 09:00:52;;;;;;;6.32;3.35;;;;;;;20.25;73.46;101687.56;6101574;19;20007;-67
2023/08/09 09:02:59;;;;;;;6.90;3.08;;;;;;;19.54;75.07;101702.00;6102095;19;20515;-70
2023/08/09 09:05:06;;;;;;;6.35;3.38;;;;;;;19.48;75.62;101694.41;6100594;19;20015;-67
2023/08/09 09:07:11;;;;;;;7.05;3.30;;;;;;;20.77;72.29;101691.13;6096200;19;20014;-67
2023/08/09 09:09:17;;;;;;;5.30;2.95;;;;;;;;;;6101424;19;20345;-67
2023/08/09 09:11:21;;;;;;;6.90;2.90;;;;;;;21.84;67.75;101699.47;6102283;19;20003;-68
2023/08/09 09:13:30;;;;;;;5.68;2.88;;;;;;;22.37;64.91;101684.84;6097796;19;20774;-68
2023/08/09 09:15:39;;;;;;;5.75;3.15;;;;;;;22.68;65.38;101684.16;6100220;19;20373;-68
2023/08/09 09:17:46;;;;;;;5.28;2.72;;;;;;;23.25;63.53;101689.53;6097718;19;20007;-69
2023/08/09 09:19:54;;;;;;;7.18;2.60;;;;;;;23.37;63.89;101681.34;6099966;19;20011;-68
2023/08/09 09:21:59;;;;;;;4.53;2.50;;;;;;;24.16;61.60;101683.81;6099242;19;20038;-68
2023/08/09 09:24:07;;;;;;;4.47;2.80;;;;;;;22.40;62.27;101689.97;6099422;19;20467;-70
2023/08/09 09:26:14;;;;;;;3.70;2.40;;;;;;;22.19;64.11;101687.09;6096784;19;20015;-68
2023/08/09 09:28:20;;;;;;;6.07;2.67;;;;;;;21.19;66.32;101694.41;6099990;19;20003;-68
2023/08/09 09:30:33;;;;;;;4.43;2.53;;;;;;;20.66;68.30;101699.06;6101498;19;20037;-68
2023/08/09 09:32:35;;;;;;;4.20;2.17;;;;;;;20.16;70.46;101689.03;6099266;19;20318;-68
2023/08/09 09:34:41;;;;;;;4.28;2.33;;;;;;;20.87;68.89;101691.34;6099014;19;20003;-68
2023/08/09 09:36:50;;;;;;;3.90;2.30;;;;;;;21.98;66.08;101689.53;6098758;19;20015;-68